sensor_id;sensor_type;location;lat;lon;timestamp;pressure;altitude;pressure_sealevel;temperature;humidity
54248;BME280;40161;39.768;2.722;2023-05-12T00:00:41;101195.53;;;13.66;60.16
54248;BME280;40161;39.768;2.722;2023-05-12T00:03:07;101190.78;;;13.67;60.83
54248;BME280;40161;39.768;2.722;2023-05-12T00:05:32;101191.00;;;13.85;60.43
54248;BME280;40161;39.768;2.722;2023-05-12T00:07:58;101178.53;;;13.64;60.32
54248;BME280;40161;39.768;2.722;2023-05-12T00:10:25;101165.75;;;13.49;61.61
54248;BME280;40161;39.768;2.722;2023-05-12T00:12:52;101180.19;;;13.72;61.10
54248;BME280;40161;39.768;2.722;2023-05-12T00:15:19;101191.31;;;13.80;61.02
54248;BME280;40161;39.768;2.722;2023-05-12T00:17:46;101189.53;;;13.94;60.03
54248;BME280;40161;39.768;2.722;2023-05-12T00:20:12;101197.72;;;13.87;62.02
54248;BME280;40161;39.768;2.722;2023-05-12T00:22:38;101139.22;;;13.37;62.10
54248;BME280;40161;39.768;2.722;2023-05-12T00:25:04;101195.97;;;13.72;61.23
54248;BME280;40161;39.768;2.722;2023-05-12T00:27:30;101190.03;;;13.70;61.59
54248;BME280;40161;39.768;2.722;2023-05-12T00:29:56;101179.63;;;13.56;62.27
54248;BME280;40161;39.768;2.722;2023-05-12T00:32:23;101176.44;;;13.54;62.49
54248;BME280;40161;39.768;2.722;2023-05-12T00:34:49;101176.44;;;13.54;62.74
54248;BME280;40161;39.768;2.722;2023-05-12T00:37:15;101186.69;;;13.87;61.31
54248;BME280;40161;39.768;2.722;2023-05-12T00:39:41;101172.75;;;13.73;60.89
54248;BME280;40161;39.768;2.722;2023-05-12T00:42:06;101184.13;;;13.71;61.39
54248;BME280;40161;39.768;2.722;2023-05-12T00:44:32;101164.75;;;13.34;62.88
54248;BME280;40161;39.768;2.722;2023-05-12T00:46:58;101113.53;;;13.03;62.30
54248;BME280;40161;39.768;2.722;2023-05-12T00:49:25;101154.31;;;13.47;61.77
54248;BME280;40161;39.768;2.722;2023-05-12T00:51:53;101147.69;;;13.55;61.06
54248;BME280;40161;39.768;2.722;2023-05-12T00:54:19;101146.88;;;13.51;62.11
54248;BME280;40161;39.768;2.722;2023-05-12T00:56:45;101153.66;;;13.27;63.50
54248;BME280;40161;39.768;2.722;2023-05-12T00:59:10;101139.69;;;13.43;61.59
54248;BME280;40161;39.768;2.722;2023-05-12T01:01:36;101146.00;;;13.43;62.63
54248;BME280;40161;39.768;2.722;2023-05-12T01:04:03;101152.91;;;13.30;61.98
54248;BME280;40161;39.768;2.722;2023-05-12T01:06:42;101141.19;;;13.10;63.65
54248;BME280;40161;39.768;2.722;2023-05-12T01:09:10;101146.66;;;13.33;62.92
54248;BME280;40161;39.768;2.722;2023-05-12T01:11:36;101148.97;;;13.31;62.64
54248;BME280;40161;39.768;2.722;2023-05-12T01:14:02;101152.19;;;13.37;62.60
54248;BME280;40161;39.768;2.722;2023-05-12T01:16:35;101127.78;;;13.35;63.09
54248;BME280;40161;39.768;2.722;2023-05-12T01:19:08;101165.59;;;13.38;62.74
54248;BME280;40161;39.768;2.722;2023-05-12T01:21:39;101143.25;;;13.17;64.02
54248;BME280;40161;39.768;2.722;2023-05-12T01:24:06;101158.41;;;13.30;64.50
54248;BME280;40161;39.768;2.722;2023-05-12T01:26:33;101148.63;;;13.33;63.99
54248;BME280;40161;39.768;2.722;2023-05-12T01:29:00;101161.38;;;13.18;64.40
54248;BME280;40161;39.768;2.722;2023-05-12T01:31:26;101153.25;;;13.25;65.17
54248;BME280;40161;39.768;2.722;2023-05-12T01:33:52;101143.91;;;13.06;64.89
54248;BME280;40161;39.768;2.722;2023-05-12T01:36:18;101131.84;;;12.88;65.39
54248;BME280;40161;39.768;2.722;2023-05-12T01:38:43;101134.34;;;13.00;65.45
54248;BME280;40161;39.768;2.722;2023-05-12T01:41:09;101130.47;;;13.01;65.75
54248;BME280;40161;39.768;2.722;2023-05-12T01:43:34;101125.59;;;12.91;66.17
54248;BME280;40161;39.768;2.722;2023-05-12T01:46:00;101116.69;;;13.01;65.52
54248;BME280;40161;39.768;2.722;2023-05-12T01:48:25;101114.84;;;13.13;66.05
54248;BME280;40161;39.768;2.722;2023-05-12T01:50:51;101109.31;;;13.09;65.55
54248;BME280;40161;39.768;2.722;2023-05-12T01:53:16;101090.56;;;12.92;66.36
54248;BME280;40161;39.768;2.722;2023-05-12T01:55:42;101091.84;;;12.98;65.93
54248;BME280;40161;39.768;2.722;2023-05-12T01:58:07;101081.78;;;12.82;66.76
54248;BME280;40161;39.768;2.722;2023-05-12T02:00:33;101081.44;;;12.84;66.60
54248;BME280;40161;39.768;2.722;2023-05-12T02:02:58;101115.28;;;13.15;66.77
54248;BME280;40161;39.768;2.722;2023-05-12T02:05:24;101102.31;;;13.15;65.93
54248;BME280;40161;39.768;2.722;2023-05-12T02:07:50;101103.91;;;13.20;66.37
54248;BME280;40161;39.768;2.722;2023-05-12T02:10:15;101111.56;;;13.30;65.59
54248;BME280;40161;39.768;2.722;2023-05-12T02:12:41;101102.31;;;13.15;66.41
54248;BME280;40161;39.768;2.722;2023-05-12T02:15:06;101102.97;;;13.35;66.30
54248;BME280;40161;39.768;2.722;2023-05-12T02:17:32;101101.69;;;12.99;67.06
54248;BME280;40161;39.768;2.722;2023-05-12T02:19:58;101102.47;;;13.26;66.05
54248;BME280;40161;39.768;2.722;2023-05-12T02:22:23;101090.50;;;13.15;66.15
54248;BME280;40161;39.768;2.722;2023-05-12T02:24:49;101084.97;;;13.15;66.82
54248;BME280;40161;39.768;2.722;2023-05-12T02:27:14;101073.84;;;12.77;66.59
54248;BME280;40161;39.768;2.722;2023-05-12T02:29:40;101076.63;;;13.07;67.14
54248;BME280;40161;39.768;2.722;2023-05-12T02:32:06;101084.06;;;13.07;68.26
54248;BME280;40161;39.768;2.722;2023-05-12T02:34:31;101078.56;;;13.07;68.53
54248;BME280;40161;39.768;2.722;2023-05-12T02:36:57;101087.63;;;13.38;66.28
54248;BME280;40161;39.768;2.722;2023-05-12T02:39:22;101068.06;;;13.16;67.46
54248;BME280;40161;39.768;2.722;2023-05-12T02:41:48;101076.75;;;13.18;67.27
54248;BME280;40161;39.768;2.722;2023-05-12T02:44:14;101101.09;;;13.43;66.93
54248;BME280;40161;39.768;2.722;2023-05-12T02:46:40;101099.31;;;13.27;66.53
54248;BME280;40161;39.768;2.722;2023-05-12T02:49:06;101096.75;;;13.12;66.78
54248;BME280;40161;39.768;2.722;2023-05-12T02:51:31;101106.44;;;13.28;66.70
54248;BME280;40161;39.768;2.722;2023-05-12T02:53:57;101098.13;;;13.25;67.40
54248;BME280;40161;39.768;2.722;2023-05-12T02:56:22;101095.84;;;13.34;67.36
54248;BME280;40161;39.768;2.722;2023-05-12T02:58:48;101078.25;;;13.42;66.01
54248;BME280;40161;39.768;2.722;2023-05-12T03:01:13;101084.69;;;13.57;65.06
54248;BME280;40161;39.768;2.722;2023-05-12T03:03:39;101083.38;;;13.44;65.85
54248;BME280;40161;39.768;2.722;2023-05-12T03:06:05;101079.16;;;13.53;66.74
54248;BME280;40161;39.768;2.722;2023-05-12T03:08:31;101071.59;;;13.47;66.07
54248;BME280;40161;39.768;2.722;2023-05-12T03:10:57;101059.81;;;13.50;65.51
54248;BME280;40161;39.768;2.722;2023-05-12T03:13:23;101044.38;;;13.45;65.15
54248;BME280;40161;39.768;2.722;2023-05-12T03:15:48;101059.53;;;13.62;65.24
54248;BME280;40161;39.768;2.722;2023-05-12T03:18:14;101073.09;;;13.78;65.16
54248;BME280;40161;39.768;2.722;2023-05-12T03:20:39;101073.56;;;13.84;64.44
54248;BME280;40161;39.768;2.722;2023-05-12T03:23:05;101067.66;;;13.85;64.41
54248;BME280;40161;39.768;2.722;2023-05-12T03:25:30;101081.00;;;13.83;65.23
54248;BME280;40161;39.768;2.722;2023-05-12T03:27:56;101069.06;;;13.68;66.44
54248;BME280;40161;39.768;2.722;2023-05-12T03:30:21;101061.47;;;13.58;65.56
54248;BME280;40161;39.768;2.722;2023-05-12T03:32:47;101056.72;;;13.59;65.33
54248;BME280;40161;39.768;2.722;2023-05-12T03:35:12;101035.47;;;13.59;65.76
54248;BME280;40161;39.768;2.722;2023-05-12T03:37:38;101069.91;;;13.76;66.20
54248;BME280;40161;39.768;2.722;2023-05-12T03:40:04;101051.28;;;13.66;65.11
54248;BME280;40161;39.768;2.722;2023-05-12T03:42:30;101061.47;;;13.58;66.45
54248;BME280;40161;39.768;2.722;2023-05-12T03:44:56;101058.09;;;13.38;67.38
54248;BME280;40161;39.768;2.722;2023-05-12T03:47:21;101064.31;;;13.32;68.35
54248;BME280;40161;39.768;2.722;2023-05-12T03:49:47;101043.44;;;13.30;68.58
54248;BME280;40161;39.768;2.722;2023-05-12T03:52:12;101064.06;;;13.44;67.85
54248;BME280;40161;39.768;2.722;2023-05-12T03:54:38;101066.03;;;13.43;68.14
54248;BME280;40161;39.768;2.722;2023-05-12T03:57:03;101055.09;;;13.50;67.85
54248;BME280;40161;39.768;2.722;2023-05-12T03:59:30;101066.44;;;13.45;67.68
54248;BME280;40161;39.768;2.722;2023-05-12T04:01:56;101038.78;;;13.38;68.75
54248;BME280;40161;39.768;2.722;2023-05-12T04:04:22;101022.75;;;13.14;68.34
54248;BME280;40161;39.768;2.722;2023-05-12T04:06:48;101074.97;;;13.33;68.99
54248;BME280;40161;39.768;2.722;2023-05-12T04:09:13;101046.09;;;13.23;68.59
54248;BME280;40161;39.768;2.722;2023-05-12T04:11:41;101068.78;;;13.43;69.86
54248;BME280;40161;39.768;2.722;2023-05-12T04:14:06;101053.28;;;13.32;70.09
54248;BME280;40161;39.768;2.722;2023-05-12T04:16:32;101032.38;;;13.27;70.90
54248;BME280;40161;39.768;2.722;2023-05-12T04:19:00;101060.16;;;13.48;71.15
54248;BME280;40161;39.768;2.722;2023-05-12T04:21:26;101057.38;;;13.45;70.18
54248;BME280;40161;39.768;2.722;2023-05-12T04:23:51;101067.25;;;13.46;71.42
54248;BME280;40161;39.768;2.722;2023-05-12T04:26:17;101049.00;;;13.34;70.96
54248;BME280;40161;39.768;2.722;2023-05-12T04:28:43;101055.47;;;13.49;70.74
54248;BME280;40161;39.768;2.722;2023-05-12T04:31:08;101057.84;;;13.50;70.21
54248;BME280;40161;39.768;2.722;2023-05-12T04:33:34;101065.84;;;13.63;70.98
54248;BME280;40161;39.768;2.722;2023-05-12T04:35:59;101059.50;;;13.59;70.80
54248;BME280;40161;39.768;2.722;2023-05-12T04:38:26;101073.25;;;13.55;70.88
54248;BME280;40161;39.768;2.722;2023-05-12T04:40:59;101063.59;;;13.38;72.65
54248;BME280;40161;39.768;2.722;2023-05-12T04:43:25;101072.03;;;13.49;72.07
54248;BME280;40161;39.768;2.722;2023-05-12T04:45:51;101067.25;;;13.46;72.24
54248;BME280;40161;39.768;2.722;2023-05-12T04:48:18;101068.75;;;13.40;71.60
54248;BME280;40161;39.768;2.722;2023-05-12T04:50:44;101060.13;;;13.45;72.73
54248;BME280;40161;39.768;2.722;2023-05-12T04:53:09;101057.78;;;13.43;72.91
54248;BME280;40161;39.768;2.722;2023-05-12T04:55:35;101052.31;;;13.50;73.28
54248;BME280;40161;39.768;2.722;2023-05-12T04:58:01;101079.38;;;13.75;72.59
54248;BME280;40161;39.768;2.722;2023-05-12T05:00:26;101061.50;;;13.62;71.75
54248;BME280;40161;39.768;2.722;2023-05-12T05:02:52;101055.63;;;13.63;71.79
54248;BME280;40161;39.768;2.722;2023-05-12T05:05:17;101068.66;;;13.66;71.09
54248;BME280;40161;39.768;2.722;2023-05-12T05:07:43;101092.25;;;13.64;71.17
54248;BME280;40161;39.768;2.722;2023-05-12T05:10:08;101083.22;;;13.67;71.87
54248;BME280;40161;39.768;2.722;2023-05-12T05:12:34;101072.69;;;13.80;70.89
54248;BME280;40161;39.768;2.722;2023-05-12T05:14:59;101067.44;;;13.64;71.20
54248;BME280;40161;39.768;2.722;2023-05-12T05:17:26;101078.56;;;13.74;71.79
54248;BME280;40161;39.768;2.722;2023-05-12T05:19:52;101074.25;;;13.73;72.20
54248;BME280;40161;39.768;2.722;2023-05-12T05:22:18;101053.84;;;13.44;71.42
54248;BME280;40161;39.768;2.722;2023-05-12T05:24:43;101070.91;;;13.98;70.58
54248;BME280;40161;39.768;2.722;2023-05-12T05:27:09;101054.78;;;14.04;69.77
54248;BME280;40161;39.768;2.722;2023-05-12T05:29:34;101077.34;;;14.13;71.07
54248;BME280;40161;39.768;2.722;2023-05-12T05:32:00;101079.97;;;13.98;70.38
54248;BME280;40161;39.768;2.722;2023-05-12T05:34:25;101085.53;;;14.02;70.56
54248;BME280;40161;39.768;2.722;2023-05-12T05:36:51;101083.94;;;13.97;71.40
54248;BME280;40161;39.768;2.722;2023-05-12T05:39:16;101078.84;;;14.03;71.19
54248;BME280;40161;39.768;2.722;2023-05-12T05:41:42;101071.00;;;14.09;71.34
54248;BME280;40161;39.768;2.722;2023-05-12T05:44:07;101074.28;;;14.21;70.90
54248;BME280;40161;39.768;2.722;2023-05-12T05:46:33;101063.69;;;14.34;70.22
54248;BME280;40161;39.768;2.722;2023-05-12T05:48:58;101053.13;;;14.43;69.35
54248;BME280;40161;39.768;2.722;2023-05-12T05:51:24;101073.44;;;14.69;68.38
54248;BME280;40161;39.768;2.722;2023-05-12T05:53:50;101062.41;;;14.76;68.37
54248;BME280;40161;39.768;2.722;2023-05-12T05:56:15;101055.72;;;14.77;68.25
54248;BME280;40161;39.768;2.722;2023-05-12T05:58:41;101056.59;;;14.95;67.73
54248;BME280;40161;39.768;2.722;2023-05-12T06:01:07;101052.66;;;14.96;68.17
54248;BME280;40161;39.768;2.722;2023-05-12T06:03:32;101066.13;;;15.05;69.37
54248;BME280;40161;39.768;2.722;2023-05-12T06:05:58;101050.25;;;14.84;70.20
54248;BME280;40161;39.768;2.722;2023-05-12T06:08:23;101055.34;;;14.79;70.37
54248;BME280;40161;39.768;2.722;2023-05-12T06:10:49;101054.22;;;14.87;69.50
54248;BME280;40161;39.768;2.722;2023-05-12T06:13:14;101057.28;;;14.71;69.35
54248;BME280;40161;39.768;2.722;2023-05-12T06:15:40;101062.75;;;14.60;70.46
54248;BME280;40161;39.768;2.722;2023-05-12T06:18:06;101065.94;;;14.66;70.50
54248;BME280;40161;39.768;2.722;2023-05-12T06:20:31;101048.28;;;14.88;69.47
54248;BME280;40161;39.768;2.722;2023-05-12T06:22:57;101063.75;;;15.04;70.37
54248;BME280;40161;39.768;2.722;2023-05-12T06:25:22;100988.97;;;14.64;69.32
54248;BME280;40161;39.768;2.722;2023-05-12T06:27:51;101063.03;;;15.21;69.75
54248;BME280;40161;39.768;2.722;2023-05-12T06:30:19;101064.22;;;15.24;70.71
54248;BME280;40161;39.768;2.722;2023-05-12T06:32:45;101069.81;;;15.41;69.64
54248;BME280;40161;39.768;2.722;2023-05-12T06:35:10;101062.66;;;15.26;69.81
54248;BME280;40161;39.768;2.722;2023-05-12T06:37:36;101059.13;;;15.36;70.26
54248;BME280;40161;39.768;2.722;2023-05-12T06:40:02;101057.59;;;15.46;69.99
54248;BME280;40161;39.768;2.722;2023-05-12T06:42:28;101035.44;;;15.42;69.22
54248;BME280;40161;39.768;2.722;2023-05-12T06:44:54;101070.34;;;15.83;68.87
54248;BME280;40161;39.768;2.722;2023-05-12T06:47:19;101056.88;;;15.96;65.82
54248;BME280;40161;39.768;2.722;2023-05-12T06:49:45;101056.88;;;16.03;65.78
54248;BME280;40161;39.768;2.722;2023-05-12T06:52:10;101050.19;;;16.07;66.04
54248;BME280;40161;39.768;2.722;2023-05-12T06:54:36;101059.25;;;16.36;66.50
54248;BME280;40161;39.768;2.722;2023-05-12T06:57:02;101063.22;;;16.32;66.63
54248;BME280;40161;39.768;2.722;2023-05-12T06:59:29;101058.47;;;16.43;64.61
54248;BME280;40161;39.768;2.722;2023-05-12T07:01:55;101048.94;;;16.44;63.86
54248;BME280;40161;39.768;2.722;2023-05-12T07:04:20;101043.78;;;16.57;62.32
54248;BME280;40161;39.768;2.722;2023-05-12T07:06:46;101046.53;;;16.71;62.14
54248;BME280;40161;39.768;2.722;2023-05-12T07:09:12;101033.44;;;16.72;61.90
54248;BME280;40161;39.768;2.722;2023-05-12T07:11:38;101039.34;;;16.95;60.79
54248;BME280;40161;39.768;2.722;2023-05-12T07:14:04;101047.59;;;17.06;60.10
54248;BME280;40161;39.768;2.722;2023-05-12T07:16:29;101049.19;;;17.11;60.29
54248;BME280;40161;39.768;2.722;2023-05-12T07:18:55;101003.72;;;16.90;59.73
54248;BME280;40161;39.768;2.722;2023-05-12T07:21:20;101059.00;;;17.26;60.22
54248;BME280;40161;39.768;2.722;2023-05-12T07:23:46;101039.59;;;17.26;58.84
54248;BME280;40161;39.768;2.722;2023-05-12T07:26:12;101043.56;;;17.25;59.54
54248;BME280;40161;39.768;2.722;2023-05-12T07:28:37;101052.66;;;17.29;59.48
54248;BME280;40161;39.768;2.722;2023-05-12T07:31:04;101043.88;;;17.38;59.29
54248;BME280;40161;39.768;2.722;2023-05-12T07:33:30;101035.53;;;17.45;58.40
54248;BME280;40161;39.768;2.722;2023-05-12T07:35:55;101024.06;;;17.39;58.09
54248;BME280;40161;39.768;2.722;2023-05-12T07:38:21;101045.41;;;17.53;58.26
54248;BME280;40161;39.768;2.722;2023-05-12T07:40:47;101030.38;;;17.43;57.76
54248;BME280;40161;39.768;2.722;2023-05-12T07:43:13;101015.31;;;17.44;58.22
54248;BME280;40161;39.768;2.722;2023-05-12T07:45:38;101027.84;;;17.70;57.62
54248;BME280;40161;39.768;2.722;2023-05-12T07:48:04;101016.72;;;17.74;57.15
54248;BME280;40161;39.768;2.722;2023-05-12T07:50:29;101018.66;;;17.84;57.00
54248;BME280;40161;39.768;2.722;2023-05-12T07:52:55;101042.69;;;18.01;56.48
54248;BME280;40161;39.768;2.722;2023-05-12T07:55:21;101033.63;;;17.97;56.62
54248;BME280;40161;39.768;2.722;2023-05-12T07:57:50;101037.09;;;18.05;56.06
54248;BME280;40161;39.768;2.722;2023-05-12T08:00:15;101016.63;;;17.88;55.35
54248;BME280;40161;39.768;2.722;2023-05-12T08:02:42;101035.50;;;18.08;54.49
54248;BME280;40161;39.768;2.722;2023-05-12T08:05:08;101025.94;;;18.12;53.09
54248;BME280;40161;39.768;2.722;2023-05-12T08:07:36;101041.72;;;18.22;52.50
54248;BME280;40161;39.768;2.722;2023-05-12T08:10:03;101004.13;;;18.11;52.45
54248;BME280;40161;39.768;2.722;2023-05-12T08:12:28;101021.81;;;18.31;52.49
54248;BME280;40161;39.768;2.722;2023-05-12T08:14:54;101007.13;;;18.31;50.29
54248;BME280;40161;39.768;2.722;2023-05-12T08:17:20;101026.00;;;18.46;53.10
54248;BME280;40161;39.768;2.722;2023-05-12T08:19:45;101034.53;;;18.66;51.68
54248;BME280;40161;39.768;2.722;2023-05-12T08:22:11;101030.16;;;18.69;52.68
54248;BME280;40161;39.768;2.722;2023-05-12T08:24:36;101033.78;;;18.62;51.87
54248;BME280;40161;39.768;2.722;2023-05-12T08:27:02;101010.34;;;18.63;51.68
54248;BME280;40161;39.768;2.722;2023-05-12T08:29:28;101028.88;;;18.77;52.48
54248;BME280;40161;39.768;2.722;2023-05-12T08:31:53;101004.81;;;18.60;52.75
54248;BME280;40161;39.768;2.722;2023-05-12T08:34:19;101036.47;;;18.73;52.93
54248;BME280;40161;39.768;2.722;2023-05-12T08:36:45;101015.56;;;18.58;54.04
54248;BME280;40161;39.768;2.722;2023-05-12T08:39:10;101013.91;;;18.64;54.19
54248;BME280;40161;39.768;2.722;2023-05-12T08:41:44;101033.44;;;18.94;53.51
54248;BME280;40161;39.768;2.722;2023-05-12T08:44:14;101024.16;;;18.74;53.68
54248;BME280;40161;39.768;2.722;2023-05-12T08:46:41;101035.91;;;18.85;53.39
54248;BME280;40161;39.768;2.722;2023-05-12T08:49:09;101044.19;;;18.92;54.63
54248;BME280;40161;39.768;2.722;2023-05-12T08:51:39;101032.28;;;18.92;54.44
54248;BME280;40161;39.768;2.722;2023-05-12T08:54:11;101037.25;;;18.73;56.33
54248;BME280;40161;39.768;2.722;2023-05-12T08:56:37;101031.66;;;18.77;55.53
54248;BME280;40161;39.768;2.722;2023-05-12T08:59:03;100967.63;;;18.50;55.09
54248;BME280;40161;39.768;2.722;2023-05-12T09:01:33;101034.66;;;18.93;54.55
54248;BME280;40161;39.768;2.722;2023-05-12T09:03:59;101016.59;;;18.71;54.81
54248;BME280;40161;39.768;2.722;2023-05-12T09:06:25;101024.53;;;18.76;55.18
54248;BME280;40161;39.768;2.722;2023-05-12T09:08:51;101021.81;;;19.03;53.89
54248;BME280;40161;39.768;2.722;2023-05-12T09:11:18;101011.88;;;19.02;52.93
54248;BME280;40161;39.768;2.722;2023-05-12T09:13:47;101015.72;;;19.12;53.49
54248;BME280;40161;39.768;2.722;2023-05-12T09:16:18;101006.06;;;19.24;52.29
54248;BME280;40161;39.768;2.722;2023-05-12T09:18:51;101004.69;;;19.35;52.15
54248;BME280;40161;39.768;2.722;2023-05-12T09:21:16;101016.38;;;19.50;51.61
54248;BME280;40161;39.768;2.722;2023-05-12T09:24:05;101012.75;;;19.53;51.00
54248;BME280;40161;39.768;2.722;2023-05-12T09:26:44;101002.72;;;19.63;48.95
54248;BME280;40161;39.768;2.722;2023-05-12T09:29:11;100995.53;;;19.65;48.95
54248;BME280;40161;39.768;2.722;2023-05-12T09:31:36;100996.56;;;19.75;49.19
54248;BME280;40161;39.768;2.722;2023-05-12T09:34:07;100996.19;;;19.97;49.00
54248;BME280;40161;39.768;2.722;2023-05-12T09:36:33;100998.78;;;20.07;49.29
54248;BME280;40161;39.768;2.722;2023-05-12T09:39:00;100969.44;;;20.03;48.55
54248;BME280;40161;39.768;2.722;2023-05-12T09:41:29;100977.66;;;20.10;47.24
54248;BME280;40161;39.768;2.722;2023-05-12T09:43:55;100961.09;;;20.03;46.91
54248;BME280;40161;39.768;2.722;2023-05-12T09:46:21;100984.53;;;20.25;47.04
54248;BME280;40161;39.768;2.722;2023-05-12T09:48:47;100980.91;;;20.28;47.40
54248;BME280;40161;39.768;2.722;2023-05-12T09:51:16;100982.34;;;20.36;46.69
54248;BME280;40161;39.768;2.722;2023-05-12T09:53:44;100986.34;;;20.35;45.28
54248;BME280;40161;39.768;2.722;2023-05-12T09:56:12;100973.03;;;20.43;43.47
54248;BME280;40161;39.768;2.722;2023-05-12T09:58:44;100990.75;;;20.56;43.68
54248;BME280;40161;39.768;2.722;2023-05-12T10:01:12;100980.94;;;20.48;44.03
54248;BME280;40161;39.768;2.722;2023-05-12T10:03:39;100966.84;;;20.35;45.42
54248;BME280;40161;39.768;2.722;2023-05-12T10:06:12;100952.91;;;20.35;46.34
54248;BME280;40161;39.768;2.722;2023-05-12T10:08:53;100973.50;;;20.42;48.05
54248;BME280;40161;39.768;2.722;2023-05-12T10:11:21;100989.44;;;20.61;47.45
54248;BME280;40161;39.768;2.722;2023-05-12T10:13:47;100980.00;;;20.75;46.95
54248;BME280;40161;39.768;2.722;2023-05-12T10:16:14;100952.56;;;20.53;47.49
54248;BME280;40161;39.768;2.722;2023-05-12T10:18:42;100986.66;;;20.81;46.48
54248;BME280;40161;39.768;2.722;2023-05-12T10:21:09;100973.72;;;20.71;47.70
54248;BME280;40161;39.768;2.722;2023-05-12T10:23:38;100988.81;;;20.73;46.58
54248;BME280;40161;39.768;2.722;2023-05-12T10:26:04;100960.06;;;20.56;47.24
54248;BME280;40161;39.768;2.722;2023-05-12T10:28:30;100978.22;;;20.84;47.94
54248;BME280;40161;39.768;2.722;2023-05-12T10:30:59;100934.59;;;20.74;46.96
54248;BME280;40161;39.768;2.722;2023-05-12T10:33:25;100968.84;;;20.95;47.53
54248;BME280;40161;39.768;2.722;2023-05-12T10:35:52;100951.34;;;20.74;47.74
54248;BME280;40161;39.768;2.722;2023-05-12T10:38:17;100938.47;;;20.80;47.76
54248;BME280;40161;39.768;2.722;2023-05-12T10:40:57;100993.72;;;21.05;48.60
54248;BME280;40161;39.768;2.722;2023-05-12T10:43:25;100983.53;;;20.79;50.44
54248;BME280;40161;39.768;2.722;2023-05-12T10:46:16;100990.81;;;20.73;51.25
54248;BME280;40161;39.768;2.722;2023-05-12T10:49:01;101001.97;;;20.53;53.46
54248;BME280;40161;39.768;2.722;2023-05-12T10:54:11;100978.56;;;20.27;53.23
54248;BME280;40161;39.768;2.722;2023-05-12T10:59:09;100980.78;;;20.35;53.87
54248;BME280;40161;39.768;2.722;2023-05-12T11:01:36;101001.63;;;20.47;53.18
54248;BME280;40161;39.768;2.722;2023-05-12T11:04:15;101002.94;;;20.43;52.64
54248;BME280;40161;39.768;2.722;2023-05-12T11:06:42;100979.69;;;20.29;52.74
54248;BME280;40161;39.768;2.722;2023-05-12T11:09:09;100981.50;;;20.16;51.33
54248;BME280;40161;39.768;2.722;2023-05-12T11:11:37;101000.66;;;20.37;49.02
54248;BME280;40161;39.768;2.722;2023-05-12T11:14:03;100997.00;;;20.41;46.64
54248;BME280;40161;39.768;2.722;2023-05-12T11:16:29;100995.50;;;20.12;47.52
54248;BME280;40161;39.768;2.722;2023-05-12T11:19:04;101012.28;;;20.32;48.71
54248;BME280;40161;39.768;2.722;2023-05-12T11:21:33;100931.94;;;20.07;47.29
54248;BME280;40161;39.768;2.722;2023-05-12T11:24:00;101005.06;;;20.58;47.51
54248;BME280;40161;39.768;2.722;2023-05-12T11:26:27;100986.97;;;20.43;49.49
54248;BME280;40161;39.768;2.722;2023-05-12T11:28:53;100997.25;;;20.70;49.43
54248;BME280;40161;39.768;2.722;2023-05-12T11:31:20;100974.31;;;20.62;51.00
54248;BME280;40161;39.768;2.722;2023-05-12T11:33:46;100992.25;;;20.81;51.77
54248;BME280;40161;39.768;2.722;2023-05-12T11:36:13;100958.00;;;20.60;50.20
54248;BME280;40161;39.768;2.722;2023-05-12T11:38:39;100957.22;;;20.60;51.19
54248;BME280;40161;39.768;2.722;2023-05-12T11:41:12;100946.63;;;20.71;51.23
54248;BME280;40161;39.768;2.722;2023-05-12T11:43:37;100956.84;;;20.78;50.92
54248;BME280;40161;39.768;2.722;2023-05-12T11:46:03;100913.91;;;20.75;49.12
54248;BME280;40161;39.768;2.722;2023-05-12T11:48:34;100949.75;;;20.93;50.17
54248;BME280;40161;39.768;2.722;2023-05-12T11:50:59;100924.22;;;20.75;50.37
54248;BME280;40161;39.768;2.722;2023-05-12T11:53:25;100954.66;;;21.05;49.43
54248;BME280;40161;39.768;2.722;2023-05-12T11:55:53;100959.63;;;21.34;49.32
54248;BME280;40161;39.768;2.722;2023-05-12T11:58:24;100952.19;;;21.44;49.39
54248;BME280;40161;39.768;2.722;2023-05-12T12:00:51;100924.47;;;21.37;50.93
54248;BME280;40161;39.768;2.722;2023-05-12T12:03:17;100957.78;;;21.60;51.56
54248;BME280;40161;39.768;2.722;2023-05-12T12:05:45;100949.69;;;21.49;51.28
54248;BME280;40161;39.768;2.722;2023-05-12T12:08:21;100932.66;;;21.44;51.22
54248;BME280;40161;39.768;2.722;2023-05-12T12:10:47;100930.25;;;21.26;51.77
54248;BME280;40161;39.768;2.722;2023-05-12T12:13:18;100935.31;;;21.51;52.49
54248;BME280;40161;39.768;2.722;2023-05-12T12:15:44;100939.56;;;21.55;52.26
54248;BME280;40161;39.768;2.722;2023-05-12T12:18:10;100935.53;;;21.73;51.98
54248;BME280;40161;39.768;2.722;2023-05-12T12:20:35;100929.78;;;21.64;51.51
54248;BME280;40161;39.768;2.722;2023-05-12T12:23:01;100924.28;;;21.60;51.52
54248;BME280;40161;39.768;2.722;2023-05-12T12:25:26;100933.72;;;21.50;52.62
54248;BME280;40161;39.768;2.722;2023-05-12T12:27:52;100902.63;;;21.15;52.87
54248;BME280;40161;39.768;2.722;2023-05-12T12:30:18;100926.19;;;21.47;53.35
54248;BME280;40161;39.768;2.722;2023-05-12T12:32:44;100920.38;;;21.58;51.93
54248;BME280;40161;39.768;2.722;2023-05-12T12:35:11;100925.94;;;21.74;52.47
54248;BME280;40161;39.768;2.722;2023-05-12T12:37:37;100914.94;;;21.50;52.07
54248;BME280;40161;39.768;2.722;2023-05-12T12:40:03;100911.72;;;21.52;52.14
54248;BME280;40161;39.768;2.722;2023-05-12T12:42:34;100926.97;;;21.80;52.45
54248;BME280;40161;39.768;2.722;2023-05-12T12:45:01;100918.69;;;21.76;52.31
54248;BME280;40161;39.768;2.722;2023-05-12T12:47:27;100926.00;;;21.87;49.63
54248;BME280;40161;39.768;2.722;2023-05-12T12:49:52;100933.41;;;21.93;48.98
54248;BME280;40161;39.768;2.722;2023-05-12T12:52:18;100909.13;;;21.61;45.25